Time,TemperatureF,DewpointF,PressureIn,WindDirection,WindDirectionDegrees,WindSpeedMPH,WindSpeedGustMPH,Humidity,HourlyPrecipIn,Conditions,Clouds,dailyrainin,SoftwareType,DateUTC
2013-03-12 00:00:00,44.8,44.2,29.79,NNW,333,9.5,23.7,98,0.01,,,0.03,VWS V14.01,2013-03-12 04:00:00,
2013-03-12 00:01:00,44.5,44.0,29.78,NW,315,5.8,10.1,98,0.03,,,0.00,VWS V14.01,2013-03-12 04:01:00,
2013-03-12 00:02:00,44.8,44.3,29.79,NW,304,6.2,23.7,98,0.01,,,0.03,VWS V14.01,2013-03-12 04:02:00,
2013-03-12 00:03:00,44.9,44.4,29.80,NNW,343,0.0,23.7,98,0.01,,,0.03,VWS V14.01,2013-03-12 04:03:00,
2013-03-12 00:04:00,44.5,44.0,29.78,North,353,3.5,12.9,98,0.03,,,0.00,VWS V14.01,2013-03-12 04:04:00,
2013-03-12 00:05:00,44.6,44.1,29.78,WNW,297,0.0,12.9,98,0.04,,,0.01,VWS V14.01,2013-03-12 04:05:00,
2013-03-12 00:06:00,44.5,44.0,29.78,NNW,340,3.4,12.9,98,0.04,,,0.01,VWS V14.01,2013-03-12 04:06:00,
2013-03-12 00:07:00,44.4,43.9,29.78,NNW,340,0.0,12.9,98,0.04,,,0.01,VWS V14.01,2013-03-12 04:07:00,
2013-03-12 00:08:00,45.0,44.5,29.79,NW,318,5.0,23.7,98,0.01,,,0.03,VWS V14.01,2013-03-12 04:08:00,
2013-03-12 00:10:00,44.3,43.8,29.78,NW,308,0.0,12.9,98,0.04,,,0.01,VWS V14.01,2013-03-12 04:10:00,
2013-03-12 00:11:00,44.4,43.9,29.78,NNW,335,4.3,12.9,98,0.04,,,0.01,VWS V14.01,2013-03-12 04:11:00,
2013-03-12 00:12:00,44.3,43.8,29.78,NNW,335,0.0,12.9,98,0.04,,,0.01,VWS V14.01,2013-03-12 04:12:00,
2013-03-12 00:13:00,44.9,44.4,29.79,NW,308,0.0,23.7,98,0.02,,,0.04,VWS V14.01,2013-03-12 04:13:00,
2013-03-12 00:14:00,44.3,43.8,29.78,NW,325,8.6,18.3,98,0.04,,,0.01,VWS V14.01,2013-03-12 04:14:00,
2013-03-12 00:15:00,44.4,43.9,29.78,NW,312,3.2,20.5,98,0.04,,,0.01,VWS V14.01,2013-03-12 04:15:00,
2013-03-12 00:16:00,44.3,43.8,29.78,NW,312,0.0,20.5,98,0.04,,,0.01,VWS V14.01,2013-03-12 04:16:00,
2013-03-12 00:17:00,44.4,43.9,29.78,NW,312,0.0,20.5,98,0.04,,,0.01,VWS V14.01,2013-03-12 04:17:00,
2013-03-12 00:18:00,44.4,43.9,29.78,NW,312,0.0,20.5,98,0.04,,,0.01,VWS V14.01,2013-03-12 04:18:00,
2013-03-12 00:19:00,44.9,44.4,29.79,NNW,328,11.4,23.7,98,0.02,,,0.04,VWS V14.01,2013-03-12 04:19:00,
2013-03-12 00:20:00,44.3,43.8,29.78,NNW,346,0.0,20.5,98,0.04,,,0.01,VWS V14.01,2013-03-12 04:20:00,
2013-03-12 00:21:00,44.4,43.9,29.78,NW,323,5.8,20.5,98,0.04,,,0.01,VWS V14.01,2013-03-12 04:21:00,
2013-03-12 00:22:00,44.4,43.9,29.78,NW,315,16.4,21.3,98,0.04,,,0.01,VWS V14.01,2013-03-12 04:22:00,
2013-03-12 00:23:00,44.4,43.9,29.78,WNW,283,0.0,21.3,98,0.04,,,0.01,VWS V14.01,2013-03-12 04:23:00,
2013-03-12 00:24:00,45.0,44.5,29.79,North,356,6.3,23.7,98,0.02,,,0.04,VWS V14.01,2013-03-12 04:24:00,
2013-03-12 00:25:00,44.4,43.9,29.78,NNW,329,0.0,21.3,98,0.04,,,0.01,VWS V14.01,2013-03-12 04:25:00,
2013-03-12 00:26:00,44.3,43.8,29.78,NNW,329,0.0,21.3,98,0.04,,,0.01,VWS V14.01,2013-03-12 04:26:00,
2013-03-12 00:27:00,44.4,43.9,29.78,NNW,329,0.0,21.3,98,0.04,,,0.01,VWS V14.01,2013-03-12 04:27:00,
2013-03-12 00:28:00,44.3,43.8,29.78,NNW,329,0.0,21.3,98,0.04,,,0.01,VWS V14.01,2013-03-12 04:28:00,
2013-03-12 00:29:00,44.9,44.4,29.79,NNW,342,3.2,23.7,98,0.02,,,0.04,VWS V14.01,2013-03-12 04:29:00,
2013-03-12 00:30:00,44.4,43.9,29.78,North,6,3.9,21.3,98,0.04,,,0.01,VWS V14.01,2013-03-12 04:30:00,
2013-03-12 00:31:00,44.4,43.9,29.78,NNW,332,2.2,21.3,98,0.04,,,0.01,VWS V14.01,2013-03-12 04:31:00,
2013-03-12 00:32:00,44.4,43.9,29.78,NNW,340,12.7,21.3,98,0.04,,,0.01,VWS V14.01,2013-03-12 04:32:00,
2013-03-12 00:33:00,44.5,44.0,29.79,NNW,343,11.6,21.3,98,0.04,,,0.01,VWS V14.01,2013-03-12 04:33:00,
2013-03-12 00:34:00,44.9,44.4,29.79,NNW,336,0.0,23.7,98,0.02,,,0.04,VWS V14.01,2013-03-12 04:34:00,
2013-03-12 00:35:00,44.5,44.0,29.79,NNW,335,5.6,21.3,98,0.04,,,0.01,VWS V14.01,2013-03-12 04:35:00,
2013-03-12 00:36:00,44.6,44.1,29.78,North,350,0.0,21.3,98,0.05,,,0.02,VWS V14.01,2013-03-12 04:36:00,
2013-03-12 00:37:00,44.5,44.0,29.78,North,350,0.0,21.3,98,0.05,,,0.02,VWS V14.01,2013-03-12 04:37:00,
2013-03-12 00:38:00,44.6,44.1,29.78,North,350,0.0,21.3,98,0.05,,,0.02,VWS V14.01,2013-03-12 04:38:00,
2013-03-12 00:39:00,44.7,44.2,29.79,NW,325,0.9,23.7,98,0.03,,,0.05,VWS V14.01,2013-03-12 04:39:00,
2013-03-12 00:40:00,44.6,44.1,29.78,NW,311,0.0,21.3,98,0.05,,,0.02,VWS V14.01,2013-03-12 04:40:00,
2013-03-12 00:41:00,44.5,44.0,29.78,North,350,3.0,21.3,98,0.05,,,0.02,VWS V14.01,2013-03-12 04:41:00,
2013-03-12 00:44:00,44.7,44.2,29.78,North,353,0.0,23.7,98,0.03,,,0.05,VWS V14.01,2013-03-12 04:44:00,
2013-03-12 00:46:00,44.7,44.2,29.78,NNW,332,1.7,21.3,98,0.05,,,0.02,VWS V14.01,2013-03-12 04:46:00,
2013-03-12 00:47:00,44.5,44.0,29.78,NNW,332,0.0,21.3,98,0.05,,,0.02,VWS V14.01,2013-03-12 04:47:00,
2013-03-12 00:50:00,44.8,44.3,29.78,North,10,24.4,24.4,98,0.03,,,0.05,VWS V14.01,2013-03-12 04:50:00,
2013-03-12 00:55:00,44.6,44.1,29.78,NNW,347,0.0,26.7,98,0.03,,,0.05,VWS V14.01,2013-03-12 04:55:00,
2013-03-12 01:33:00,44.7,44.2,29.78,North,350,0.0,21.3,98,0.05,,,0.02,VWS V14.01,2013-03-12 05:33:00,
2013-03-12 01:39:00,44.5,44.0,29.78,North,350,0.0,21.3,98,0.05,,,0.02,VWS V14.01,2013-03-12 05:39:00,
2013-03-12 01:44:00,44.6,44.1,29.78,NNW,332,0.0,21.3,98,0.05,,,0.02,VWS V14.01,2013-03-12 05:44:00,
2013-03-12 01:49:00,44.6,44.1,29.78,NW,318,0.0,21.3,98,0.05,,,0.02,VWS V14.01,2013-03-12 05:49:00,
2013-03-12 01:54:00,44.6,44.1,29.78,NNW,332,3.7,21.3,98,0.05,,,0.02,VWS V14.01,2013-03-12 05:54:00,
2013-03-12 02:00:00,44.6,44.1,29.78,NE,52,0.0,0.0,98,0.02,,,0.02,VWS V14.01,2013-03-12 06:00:00,
2013-03-12 02:05:00,44.7,44.2,29.78,NNW,338,2.6,7.6,98,0.03,,,0.03,VWS V14.01,2013-03-12 06:05:00,
2013-03-12 02:10:00,44.6,44.1,29.77,NNW,338,0.0,7.6,98,0.03,,,0.03,VWS V14.01,2013-03-12 06:10:00,
2013-03-12 02:15:00,44.6,44.1,29.78,NNW,338,0.0,7.6,98,0.03,,,0.03,VWS V14.01,2013-03-12 06:15:00,
2013-03-12 02:20:00,44.6,44.1,29.78,NNW,340,0.0,7.6,98,0.03,,,0.03,VWS V14.01,2013-03-12 06:20:00,
2013-03-12 02:25:00,44.6,44.1,29.78,NNW,340,0.0,7.6,98,0.03,,,0.03,VWS V14.01,2013-03-12 06:25:00,
2013-03-12 02:30:00,44.7,44.2,29.77,NNW,340,0.0,7.6,98,0.03,,,0.03,VWS V14.01,2013-03-12 06:30:00,
2013-03-12 02:35:00,44.5,44.0,29.76,NNW,340,0.0,7.6,98,0.03,,,0.03,VWS V14.01,2013-03-12 06:35:00,
2013-03-12 02:40:00,44.0,43.5,29.77,NE,35,10.8,29.5,98,0.04,,,0.04,VWS V14.01,2013-03-12 06:40:00,
2013-03-12 02:46:00,43.0,42.5,29.77,East,98,14.2,32.8,98,0.04,,,0.04,VWS V14.01,2013-03-12 06:46:00,
2013-03-12 02:52:00,42.0,41.5,29.77,East,91,20.1,32.8,98,0.04,,,0.04,VWS V14.01,2013-03-12 06:52:00,
2013-03-12 02:57:00,41.2,40.7,29.78,NW,319,0.0,0.0,98,0.02,,,0.04,VWS V14.01,2013-03-12 06:57:00,
2013-03-12 03:02:00,40.6,40.1,29.78,NNE,21,4.5,25.5,98,0.02,,,0.04,VWS V14.01,2013-03-12 07:02:00,
2013-03-12 03:07:00,40.2,39.7,29.78,ESE,108,3.2,25.5,98,0.02,,,0.04,VWS V14.01,2013-03-12 07:07:00,
2013-03-12 03:12:00,39.9,39.4,29.78,North,6,9.1,26.7,98,0.02,,,0.04,VWS V14.01,2013-03-12 07:12:00,
2013-03-12 03:17:00,39.6,39.1,29.78,NE,56,24.2,26.7,98,0.03,,,0.05,VWS V14.01,2013-03-12 07:17:00,
2013-03-12 03:22:00,39.3,38.8,29.78,WNW,291,14.0,32.6,98,0.03,,,0.05,VWS V14.01,2013-03-12 07:22:00,
2013-03-12 03:27:00,39.1,38.6,29.78,NNE,22,2.4,32.6,98,0.03,,,0.05,VWS V14.01,2013-03-12 07:27:00,
2013-03-12 03:32:00,38.9,38.4,29.78,NW,315,2.6,32.6,98,0.03,,,0.05,VWS V14.01,2013-03-12 07:32:00,
2013-03-12 03:38:00,38.8,38.3,29.78,ESE,107,12.5,32.6,98,0.03,,,0.05,VWS V14.01,2013-03-12 07:38:00,
2013-03-12 03:43:00,38.6,38.1,29.78,ENE,69,2.4,32.6,98,0.03,,,0.05,VWS V14.01,2013-03-12 07:43:00,
2013-03-12 03:48:00,38.7,38.2,29.78,ESE,122,20.1,32.6,98,0.03,,,0.05,VWS V14.01,2013-03-12 07:48:00,
2013-03-12 03:53:00,38.5,38.0,29.78,NNW,333,5.8,32.6,98,0.03,,,0.05,VWS V14.01,2013-03-12 07:53:00,
2013-03-12 03:58:00,38.3,37.8,29.78,SE,125,26.3,34.3,98,0.02,,,0.06,VWS V14.01,2013-03-12 07:58:00,
2013-03-12 04:03:00,38.4,37.9,29.78,NNW,347,2.1,34.3,98,0.02,,,0.06,VWS V14.01,2013-03-12 08:03:00,
2013-03-12 04:08:00,38.3,37.8,29.78,NNE,32,13.4,34.3,98,0.02,,,0.06,VWS V14.01,2013-03-12 08:08:00,
2013-03-12 04:13:00,38.3,37.8,29.78,North,359,5.8,34.3,98,0.02,,,0.06,VWS V14.01,2013-03-12 08:13:00,
2013-03-12 04:19:00,38.1,37.6,29.78,ENE,59,0.0,34.3,98,0.02,,,0.06,VWS V14.01,2013-03-12 08:19:00,
2013-03-12 04:24:00,38.2,37.7,29.77,NNE,20,4.7,34.3,98,0.02,,,0.06,VWS V14.01,2013-03-12 08:24:00,
2013-03-12 04:29:00,38.0,37.5,29.77,ESE,110,9.1,34.3,98,0.02,,,0.06,VWS V14.01,2013-03-12 08:29:00,
2013-03-12 04:34:00,37.9,37.4,29.78,NNE,25,5.8,34.7,98,0.02,,,0.06,VWS V14.01,2013-03-12 08:34:00,
2013-03-12 04:39:00,37.8,37.3,29.78,ESE,110,9.3,34.7,98,0.02,,,0.06,VWS V14.01,2013-03-12 08:39:00,
2013-03-12 04:44:00,37.8,37.3,29.78,North,4,1.9,34.7,98,0.02,,,0.06,VWS V14.01,2013-03-12 08:44:00,
2013-03-12 04:49:00,37.8,37.3,29.78,ENE,68,0.0,34.7,98,0.03,,,0.07,VWS V14.01,2013-03-12 08:49:00,
2013-03-12 04:55:00,37.7,37.2,29.79,NW,315,0.0,34.7,98,0.03,,,0.07,VWS V14.01,2013-03-12 08:55:00,
2013-03-12 05:00:00,37.7,37.2,29.79,NE,46,8.0,14.9,98,0.02,,,0.07,VWS V14.01,2013-03-12 09:00:00,
2013-03-12 05:05:00,37.6,37.1,29.79,North,357,14.0,14.9,98,0.02,,,0.07,VWS V14.01,2013-03-12 09:05:00,
2013-03-12 05:10:00,37.5,37.0,29.79,North,354,0.0,22.9,98,0.02,,,0.07,VWS V14.01,2013-03-12 09:10:00,
2013-03-12 05:16:00,37.5,37.0,29.79,North,350,0.0,22.9,98,0.02,,,0.07,VWS V14.01,2013-03-12 09:16:00,
2013-03-12 05:21:00,37.3,36.8,29.79,NE,48,3.0,22.9,98,0.02,,,0.07,VWS V14.01,2013-03-12 09:21:00,
2013-03-12 05:26:00,37.3,36.8,29.80,NNW,343,0.0,22.9,98,0.02,,,0.07,VWS V14.01,2013-03-12 09:26:00,
2013-03-12 05:31:00,37.3,36.8,29.79,SSE,158,0.0,22.9,98,0.02,,,0.07,VWS V14.01,2013-03-12 09:31:00,
2013-03-12 05:37:00,37.4,36.9,29.80,SSE,158,0.0,22.9,98,0.02,,,0.07,VWS V14.01,2013-03-12 09:37:00,
2013-03-12 05:42:00,37.5,37.0,29.79,SSE,158,0.0,22.9,98,0.03,,,0.08,VWS V14.01,2013-03-12 09:42:00,
2013-03-12 05:47:00,37.5,37.0,29.80,SSE,158,0.0,22.9,98,0.03,,,0.08,VWS V14.01,2013-03-12 09:47:00,
2013-03-12 05:52:00,37.3,36.8,29.80,NNW,347,0.0,22.9,98,0.03,,,0.08,VWS V14.01,2013-03-12 09:52:00,
2013-03-12 05:57:00,37.4,36.9,29.80,NNW,347,0.0,0.0,98,0.01,,,0.08,VWS V14.01,2013-03-12 09:57:00,
2013-03-12 06:02:00,37.4,36.9,29.80,NNW,347,0.0,0.0,98,0.01,,,0.08,VWS V14.01,2013-03-12 10:02:00,
2013-03-12 06:07:00,37.4,36.9,29.79,NNW,347,0.0,0.0,98,0.01,,,0.08,VWS V14.01,2013-03-12 10:07:00,
2013-03-12 06:12:00,37.5,37.0,29.80,North,359,0.0,11.9,98,0.01,,,0.08,VWS V14.01,2013-03-12 10:12:00,
2013-03-12 06:17:00,37.3,36.8,29.80,NNE,20,0.0,16.0,98,0.01,,,0.08,VWS V14.01,2013-03-12 10:17:00,
2013-03-12 06:23:00,37.2,36.7,29.80,ESE,121,0.0,16.0,98,0.01,,,0.08,VWS V14.01,2013-03-12 10:23:00,
2013-03-12 06:28:00,37.1,36.6,29.80,NE,49,0.0,16.0,98,0.01,,,0.08,VWS V14.01,2013-03-12 10:28:00,
2013-03-12 06:33:00,36.6,36.1,29.81,ESE,121,0.0,16.0,98,0.01,,,0.08,VWS V14.01,2013-03-12 10:33:00,
2013-03-12 06:38:00,36.5,36.0,29.80,North,10,0.0,23.1,98,0.01,,,0.08,VWS V14.01,2013-03-12 10:38:00,
2013-03-12 06:43:00,36.0,35.5,29.81,NE,38,3.4,23.1,98,0.02,,,0.09,VWS V14.01,2013-03-12 10:43:00,
2013-03-12 06:48:00,35.7,35.2,29.81,North,359,13.0,25.0,98,0.02,,,0.09,VWS V14.01,2013-03-12 10:48:00,
2013-03-12 06:53:00,35.3,34.8,29.81,NE,48,0.0,25.0,98,0.02,,,0.09,VWS V14.01,2013-03-12 10:53:00,
2013-03-12 06:59:00,35.1,34.6,29.81,NNW,328,0.0,8.8,98,0.01,,,0.09,VWS V14.01,2013-03-12 10:59:00,
2013-03-12 07:04:00,35.1,34.6,29.80,East,82,0.0,16.8,98,0.01,,,0.09,VWS V14.01,2013-03-12 11:04:00,
2013-03-12 07:09:00,34.9,34.4,29.80,NE,34,4.1,16.8,98,0.01,,,0.09,VWS V14.01,2013-03-12 11:09:00,
2013-03-12 07:14:00,34.5,34.0,29.80,NW,326,12.1,21.8,98,0.01,,,0.09,VWS V14.01,2013-03-12 11:14:00,
2013-03-12 07:20:00,34.2,33.7,29.80,NNW,335,2.6,21.8,98,0.01,,,0.09,VWS V14.01,2013-03-12 11:20:00,
2013-03-12 07:25:00,34.0,33.5,29.80,North,356,7.8,21.8,98,0.01,,,0.09,VWS V14.01,2013-03-12 11:25:00,
2013-03-12 07:30:00,33.8,33.3,29.80,North,7,1.5,21.8,98,0.01,,,0.09,VWS V14.01,2013-03-12 11:30:00,
2013-03-12 07:35:00,33.7,33.2,29.81,North,4,3.2,21.8,98,0.01,,,0.09,VWS V14.01,2013-03-12 11:35:00,
2013-03-12 07:41:00,33.6,33.1,29.80,ESE,112,10.3,23.7,98,0.01,,,0.09,VWS V14.01,2013-03-12 11:41:00,
2013-03-12 07:47:00,33.5,33.0,29.81,NNE,30,0.0,23.9,98,0.01,,,0.09,VWS V14.01,2013-03-12 11:47:00,
2013-03-12 07:52:00,33.4,32.9,29.82,East,101,0.0,23.9,98,0.02,,,0.10,VWS V14.01,2013-03-12 11:52:00,
2013-03-12 07:57:00,33.4,32.9,29.82,NW,315,0.0,0.0,98,0.01,,,0.10,VWS V14.01,2013-03-12 11:57:00,
2013-03-12 08:02:00,33.4,32.9,29.82,North,356,6.0,22.0,98,0.01,,,0.10,VWS V14.01,2013-03-12 12:02:00,
2013-03-12 08:07:00,33.3,32.8,29.82,NNW,347,1.9,22.0,98,0.01,,,0.10,VWS V14.01,2013-03-12 12:07:00,
2013-03-12 08:12:00,33.1,32.6,29.81,NNW,330,5.2,22.0,98,0.01,,,0.10,VWS V14.01,2013-03-12 12:12:00,
2013-03-12 08:17:00,33.1,32.6,29.82,SE,127,2.8,22.0,98,0.01,,,0.10,VWS V14.01,2013-03-12 12:17:00,
2013-03-12 08:22:00,33.1,32.6,29.82,NW,319,5.0,22.0,98,0.01,,,0.10,VWS V14.01,2013-03-12 12:22:00,
2013-03-12 08:28:00,33.1,32.6,29.82,East,93,0.0,22.0,98,0.01,,,0.10,VWS V14.01,2013-03-12 12:28:00,
2013-03-12 08:33:00,33.2,32.7,29.82,NW,304,0.0,22.0,98,0.01,,,0.10,VWS V14.01,2013-03-12 12:33:00,
2013-03-12 08:38:00,33.3,32.8,29.82,NNW,347,0.0,22.0,98,0.01,,,0.10,VWS V14.01,2013-03-12 12:38:00,
2013-03-12 08:43:00,33.0,32.5,29.82,East,79,2.6,22.0,98,0.01,,,0.10,VWS V14.01,2013-03-12 12:43:00,
2013-03-12 08:48:00,33.0,32.5,29.82,ESE,115,10.8,22.0,98,0.01,,,0.10,VWS V14.01,2013-03-12 12:48:00,
2013-03-12 08:53:00,32.8,32.3,29.83,North,350,5.6,22.6,98,0.01,,,0.10,VWS V14.01,2013-03-12 12:53:00,
2013-03-12 08:58:00,32.7,32.2,29.83,North,359,24.4,24.4,98,0.00,,,0.10,VWS V14.01,2013-03-12 12:58:00,
2013-03-12 09:04:00,32.5,32.0,29.83,NNW,340,16.0,24.4,98,0.00,,,0.10,VWS V14.01,2013-03-12 13:04:00,
2013-03-12 09:09:00,32.4,31.9,29.83,ESE,108,8.8,28.5,98,0.01,,,0.11,VWS V14.01,2013-03-12 13:09:00,
2013-03-12 09:14:00,32.4,31.9,29.83,NNW,346,9.1,28.5,98,0.01,,,0.11,VWS V14.01,2013-03-12 13:14:00,
2013-03-12 09:19:00,32.2,31.7,29.82,NNW,335,6.9,28.5,98,0.01,,,0.11,VWS V14.01,2013-03-12 13:19:00,
2013-03-12 09:24:00,32.1,31.6,29.83,North,359,12.7,28.5,98,0.01,,,0.11,VWS V14.01,2013-03-12 13:24:00,
2013-03-12 09:29:00,32.1,31.6,29.82,ESE,120,14.2,28.5,98,0.01,,,0.11,VWS V14.01,2013-03-12 13:29:00,
2013-03-12 09:34:00,32.1,31.6,29.83,NE,49,12.3,28.5,98,0.01,,,0.11,VWS V14.01,2013-03-12 13:34:00,
2013-03-12 09:40:00,32.2,31.7,29.83,North,3,2.8,28.7,98,0.01,,,0.11,VWS V14.01,2013-03-12 13:40:00,
2013-03-12 09:45:00,32.1,31.6,29.83,NNE,31,4.5,31.3,98,0.01,,,0.11,VWS V14.01,2013-03-12 13:45:00,
2013-03-12 09:50:00,32.2,31.7,29.83,NNW,346,10.1,31.3,98,0.01,,,0.11,VWS V14.01,2013-03-12 13:50:00,
2013-03-12 09:55:00,32.3,31.8,29.83,North,0,0.0,31.3,98,0.01,,,0.11,VWS V14.01,2013-03-12 13:55:00,
2013-03-12 10:00:00,32.2,31.7,29.83,NNW,330,2.8,16.6,98,0.01,,,0.11,VWS V14.01,2013-03-12 14:00:00,
2013-03-12 10:05:00,32.2,31.7,29.83,NNW,333,11.0,22.4,98,0.01,,,0.11,VWS V14.01,2013-03-12 14:05:00,
2013-03-12 10:11:00,32.1,31.6,29.83,NNW,346,2.8,22.4,98,0.01,,,0.11,VWS V14.01,2013-03-12 14:11:00,
2013-03-12 10:16:00,32.2,31.7,29.84,ENE,73,11.4,22.4,98,0.01,,,0.11,VWS V14.01,2013-03-12 14:16:00,
2013-03-12 10:21:00,32.1,31.6,29.84,ENE,77,7.3,22.4,98,0.01,,,0.11,VWS V14.01,2013-03-12 14:21:00,
2013-03-12 10:27:00,32.1,31.6,29.84,NNW,329,9.3,22.4,98,0.01,,,0.11,VWS V14.01,2013-03-12 14:27:00,
2013-03-12 10:32:00,32.1,31.6,29.84,NW,309,6.0,22.4,98,0.01,,,0.11,VWS V14.01,2013-03-12 14:32:00,
2013-03-12 10:37:00,31.9,31.4,29.84,SSE,166,8.6,27.8,98,0.02,,,0.12,VWS V14.01,2013-03-12 14:37:00,
2013-03-12 10:42:00,31.8,31.3,29.84,NNE,15,9.1,27.8,98,0.02,,,0.12,VWS V14.01,2013-03-12 14:42:00,
2013-03-12 10:48:00,31.7,31.2,29.84,East,79,10.1,27.8,98,0.02,,,0.12,VWS V14.01,2013-03-12 14:48:00,
2013-03-12 10:53:00,31.6,31.1,29.84,North,10,1.7,27.8,98,0.02,,,0.12,VWS V14.01,2013-03-12 14:53:00,
2013-03-12 10:58:00,31.3,30.8,29.84,North,352,15.5,28.3,98,0.01,,,0.12,VWS V14.01,2013-03-12 14:58:00,
2013-03-12 11:03:00,31.3,30.8,29.84,East,83,7.5,30.6,98,0.01,,,0.12,VWS V14.01,2013-03-12 15:03:00,
2013-03-12 11:08:00,31.3,30.8,29.84,ENE,75,3.2,30.6,98,0.01,,,0.12,VWS V14.01,2013-03-12 15:08:00,
2013-03-12 11:13:00,31.2,30.7,29.84,ENE,58,13.4,30.6,98,0.01,,,0.12,VWS V14.01,2013-03-12 15:13:00,
2013-03-12 11:19:00,31.3,30.7,29.84,North,359,3.4,30.6,98,0.01,,,0.12,VWS V14.01,2013-03-12 15:19:00,
2013-03-12 11:24:00,31.5,30.9,29.83,NNW,342,9.5,30.6,98,0.01,,,0.12,VWS V14.01,2013-03-12 15:24:00,
2013-03-12 11:29:00,31.5,30.8,29.84,North,3,9.5,32.6,97,0.01,,,0.12,VWS V14.01,2013-03-12 15:29:00,
2013-03-12 11:34:00,31.4,30.6,29.84,ESE,110,12.7,32.6,97,0.01,,,0.12,VWS V14.01,2013-03-12 15:34:00,
2013-03-12 11:40:00,31.5,30.7,29.83,NE,44,29.6,36.9,97,0.01,,,0.12,VWS V14.01,2013-03-12 15:40:00,
2013-03-12 11:45:00,31.1,30.3,29.84,NNW,329,8.4,36.9,97,0.01,,,0.12,VWS V14.01,2013-03-12 15:45:00,
2013-03-12 11:50:00,31.3,30.5,29.84,North,359,14.9,36.9,97,0.01,,,0.12,VWS V14.01,2013-03-12 15:50:00,
2013-03-12 11:55:00,31.2,30.5,29.84,NE,37,0.0,36.9,97,0.01,,,0.12,VWS V14.01,2013-03-12 15:55:00,
2013-03-12 12:00:00,31.3,30.6,29.84,NNW,328,1.1,25.0,97,0.00,,,0.12,VWS V14.01,2013-03-12 16:00:00,
2013-03-12 12:05:00,31.3,30.6,29.83,NNW,328,21.4,25.0,97,0.01,,,0.13,VWS V14.01,2013-03-12 16:05:00,
2013-03-12 12:10:00,31.2,30.6,29.83,NE,48,8.4,28.7,98,0.01,,,0.13,VWS V14.01,2013-03-12 16:10:00,
2013-03-12 12:16:00,31.0,30.4,29.83,NNW,347,1.7,33.2,98,0.01,,,0.13,VWS V14.01,2013-03-12 16:16:00,
2013-03-12 12:21:00,31.1,30.5,29.83,NW,312,5.6,33.2,98,0.01,,,0.13,VWS V14.01,2013-03-12 16:21:00,
2013-03-12 12:26:00,31.1,30.6,29.83,NW,309,14.4,33.2,98,0.01,,,0.13,VWS V14.01,2013-03-12 16:26:00,
2013-03-12 12:31:00,31.1,30.6,29.83,ENE,60,7.3,33.2,98,0.01,,,0.13,VWS V14.01,2013-03-12 16:31:00,
2013-03-12 12:36:00,31.2,30.7,29.83,NNE,28,2.2,33.2,98,0.01,,,0.13,VWS V14.01,2013-03-12 16:36:00,
2013-03-12 12:41:00,31.2,30.7,29.83,ESE,105,8.4,33.2,98,0.01,,,0.13,VWS V14.01,2013-03-12 16:41:00,
2013-03-12 12:47:00,31.2,30.7,29.83,NNW,332,8.0,33.2,98,0.01,,,0.13,VWS V14.01,2013-03-12 16:47:00,
2013-03-12 12:52:00,31.3,30.7,29.83,North,359,7.1,33.4,98,0.01,,,0.13,VWS V14.01,2013-03-12 16:52:00,
2013-03-12 12:57:00,31.3,30.6,29.83,ESE,110,2.4,23.7,97,0.01,,,0.13,VWS V14.01,2013-03-12 16:57:00,
2013-03-12 13:02:00,31.3,30.4,29.83,North,350,14.2,34.9,96,0.01,,,0.13,VWS V14.01,2013-03-12 17:02:00,
2013-03-12 13:08:00,31.2,30.1,29.83,NW,323,13.0,37.8,96,0.01,,,0.13,VWS V14.01,2013-03-12 17:08:00,
2013-03-12 13:13:00,31.1,30.0,29.83,North,349,15.3,37.8,96,0.01,,,0.13,VWS V14.01,2013-03-12 17:13:00,
2013-03-12 13:18:00,31.1,30.0,29.84,North,11,18.5,37.8,96,0.01,,,0.13,VWS V14.01,2013-03-12 17:18:00,
2013-03-12 13:23:00,31.2,30.2,29.84,WNW,290,1.7,37.8,96,0.01,,,0.13,VWS V14.01,2013-03-12 17:23:00,
2013-03-12 13:28:00,31.0,29.8,29.84,North,359,17.3,37.8,95,0.01,,,0.13,VWS V14.01,2013-03-12 17:28:00,
2013-03-12 13:33:00,30.9,29.8,29.84,NNE,20,18.3,37.8,96,0.01,,,0.13,VWS V14.01,2013-03-12 17:33:00,
2013-03-12 13:39:00,30.8,29.8,29.84,North,6,1.1,37.8,96,0.01,,,0.13,VWS V14.01,2013-03-12 17:39:00,
2013-03-12 13:44:00,30.7,29.6,29.84,ENE,77,0.0,37.8,96,0.02,,,0.14,VWS V14.01,2013-03-12 17:44:00,
2013-03-12 13:49:00,30.7,29.7,29.84,NE,55,6.5,37.8,96,0.02,,,0.14,VWS V14.01,2013-03-12 17:49:00,
2013-03-12 13:55:00,30.6,29.5,29.83,ESE,107,1.7,37.8,96,0.02,,,0.14,VWS V14.01,2013-03-12 17:55:00,
2013-03-12 14:00:00,30.6,29.5,29.83,North,357,0.0,16.2,96,0.01,,,0.14,VWS V14.01,2013-03-12 18:00:00,
2013-03-12 14:05:00,30.6,29.5,29.83,North,6,12.1,24.6,96,0.01,,,0.14,VWS V14.01,2013-03-12 18:05:00,
2013-03-12 14:10:00,30.5,29.4,29.83,NE,42,7.1,29.1,96,0.01,,,0.14,VWS V14.01,2013-03-12 18:10:00,
2013-03-12 14:15:00,30.5,29.3,29.83,NNW,338,20.7,29.1,95,0.01,,,0.14,VWS V14.01,2013-03-12 18:15:00,
2013-03-12 14:21:00,30.7,29.6,29.84,North,359,0.0,29.1,96,0.01,,,0.14,VWS V14.01,2013-03-12 18:21:00,
2013-03-12 14:26:00,30.6,29.4,29.83,SE,143,6.0,29.1,95,0.01,,,0.14,VWS V14.01,2013-03-12 18:26:00,
2013-03-12 14:31:00,30.6,29.4,29.83,North,359,6.2,29.1,95,0.01,,,0.14,VWS V14.01,2013-03-12 18:31:00,
2013-03-12 14:37:00,30.5,29.3,29.83,North,359,9.9,33.6,95,0.01,,,0.14,VWS V14.01,2013-03-12 18:37:00,
2013-03-12 14:43:00,30.5,29.3,29.83,NW,311,7.6,33.6,95,0.01,,,0.14,VWS V14.01,2013-03-12 18:43:00,
2013-03-12 14:48:00,30.5,29.2,29.83,NW,304,0.0,35.6,95,0.01,,,0.14,VWS V14.01,2013-03-12 18:48:00,
2013-03-12 14:53:00,30.7,29.4,29.83,North,359,10.6,35.6,95,0.01,,,0.14,VWS V14.01,2013-03-12 18:53:00,
2013-03-12 14:58:00,30.6,29.3,29.83,NW,312,5.8,17.0,95,0.00,,,0.14,VWS V14.01,2013-03-12 18:58:00,
2013-03-12 15:03:00,30.6,29.4,29.83,NW,309,5.0,24.6,95,0.00,,,0.14,VWS V14.01,2013-03-12 19:03:00,
2013-03-12 15:08:00,30.6,29.4,29.83,North,359,14.5,33.7,95,0.00,,,0.14,VWS V14.01,2013-03-12 19:08:00,
2013-03-12 15:14:00,30.6,29.4,29.83,ENE,59,6.5,33.7,95,0.00,,,0.14,VWS V14.01,2013-03-12 19:14:00,
2013-03-12 15:19:00,30.7,29.4,29.83,North,359,11.4,37.3,95,0.00,,,0.14,VWS V14.01,2013-03-12 19:19:00,
2013-03-12 15:24:00,30.7,29.4,29.83,NNW,336,14.2,37.7,95,0.00,,,0.14,VWS V14.01,2013-03-12 19:24:00,
2013-03-12 15:29:00,30.6,29.4,29.84,NNE,32,11.7,37.7,95,0.01,,,0.15,VWS V14.01,2013-03-12 19:29:00,
2013-03-12 15:34:00,30.6,29.5,29.84,East,97,3.2,37.7,96,0.01,,,0.15,VWS V14.01,2013-03-12 19:34:00,
2013-03-12 15:39:00,30.6,29.4,29.84,East,91,5.6,37.7,95,0.01,,,0.15,VWS V14.01,2013-03-12 19:39:00,
2013-03-12 15:44:00,30.6,29.4,29.85,NNE,25,13.0,37.7,95,0.01,,,0.15,VWS V14.01,2013-03-12 19:44:00,
2013-03-12 15:50:00,30.6,29.4,29.85,NE,37,18.6,37.7,95,0.01,,,0.15,VWS V14.01,2013-03-12 19:50:00,
2013-03-12 15:55:00,30.2,29.0,29.84,SE,127,19.2,52.9,95,0.01,,,0.15,VWS V14.01,2013-03-12 19:55:00,
2013-03-12 16:00:00,30.2,29.2,29.85,North,354,5.4,23.5,96,0.01,,,0.15,VWS V14.01,2013-03-12 20:00:00,
2013-03-12 16:05:00,30.0,29.0,29.84,NW,325,20.3,33.9,96,0.01,,,0.15,VWS V14.01,2013-03-12 20:05:00,
2013-03-12 16:10:00,29.9,29.0,29.85,North,6,17.9,33.9,96,0.01,,,0.15,VWS V14.01,2013-03-12 20:10:00,
2013-03-12 16:16:00,29.7,29.0,29.85,North,359,10.1,35.8,97,0.01,,,0.15,VWS V14.01,2013-03-12 20:16:00,
2013-03-12 16:21:00,29.6,28.9,29.85,NNW,330,13.0,35.8,97,0.01,,,0.15,VWS V14.01,2013-03-12 20:21:00,
2013-03-12 16:26:00,29.5,28.8,29.85,NNE,31,10.3,35.8,97,0.01,,,0.15,VWS V14.01,2013-03-12 20:26:00,
2013-03-12 16:32:00,29.6,28.9,29.85,ENE,60,4.5,35.8,97,0.01,,,0.15,VWS V14.01,2013-03-12 20:32:00,
2013-03-12 16:37:00,29.6,28.8,29.85,ENE,76,8.0,35.8,97,0.01,,,0.15,VWS V14.01,2013-03-12 20:37:00,
2013-03-12 16:42:00,29.6,28.8,29.85,NE,46,4.3,35.8,97,0.01,,,0.15,VWS V14.01,2013-03-12 20:42:00,
2013-03-12 16:47:00,29.7,28.6,29.85,NNW,342,0.9,35.8,96,0.01,,,0.15,VWS V14.01,2013-03-12 20:47:00,
2013-03-12 16:52:00,29.7,28.5,29.85,North,350,0.0,35.8,95,0.01,,,0.15,VWS V14.01,2013-03-12 20:52:00,
2013-03-12 16:57:00,29.9,28.6,29.85,North,4,12.3,16.4,95,0.00,,,0.15,VWS V14.01,2013-03-12 20:57:00,
2013-03-12 17:02:00,29.8,28.3,29.85,ESE,121,0.0,35.0,94,0.00,,,0.15,VWS V14.01,2013-03-12 21:02:00,
2013-03-12 17:08:00,29.9,28.3,29.85,ENE,69,3.7,35.0,94,0.00,,,0.15,VWS V14.01,2013-03-12 21:08:00,
2013-03-12 17:13:00,29.9,28.2,29.86,NNW,346,8.8,35.0,93,0.00,,,0.15,VWS V14.01,2013-03-12 21:13:00,
2013-03-12 17:18:00,29.8,28.1,29.86,East,79,8.2,35.0,93,0.00,,,0.15,VWS V14.01,2013-03-12 21:18:00,
2013-03-12 17:23:00,29.7,28.0,29.86,NNW,335,1.3,35.0,93,0.00,,,0.15,VWS V14.01,2013-03-12 21:23:00,
2013-03-12 17:28:00,29.7,28.1,29.86,NNE,25,5.8,42.9,94,0.00,,,0.15,VWS V14.01,2013-03-12 21:28:00,
2013-03-12 17:34:00,29.7,28.2,29.86,NE,49,17.9,42.9,94,0.00,,,0.15,VWS V14.01,2013-03-12 21:34:00,
2013-03-12 17:39:00,29.6,28.0,29.86,North,350,10.3,42.9,94,0.00,,,0.15,VWS V14.01,2013-03-12 21:39:00,
2013-03-12 17:44:00,29.7,28.1,29.86,NE,42,2.6,42.9,94,0.00,,,0.15,VWS V14.01,2013-03-12 21:44:00,
2013-03-12 17:49:00,29.7,28.2,29.86,NNE,24,11.9,42.9,94,0.00,,,0.15,VWS V14.01,2013-03-12 21:49:00,
2013-03-12 17:54:00,29.7,28.1,29.87,NNE,14,9.5,42.9,94,0.00,,,0.15,VWS V14.01,2013-03-12 21:54:00,
2013-03-12 17:59:00,29.6,28.0,29.87,NE,56,3.9,32.4,94,0.00,,,0.15,VWS V14.01,2013-03-12 21:59:00,
2013-03-12 18:05:00,29.6,28.0,29.87,ENE,69,0.0,33.0,94,0.00,,,0.15,VWS V14.01,2013-03-12 22:05:00,
2013-03-12 18:10:00,29.6,28.0,29.87,North,6,12.7,33.0,94,0.00,,,0.15,VWS V14.01,2013-03-12 22:10:00,
2013-03-12 18:15:00,29.6,28.0,29.87,NNW,345,8.2,35.2,94,0.00,,,0.15,VWS V14.01,2013-03-12 22:15:00,
2013-03-12 18:20:00,29.6,28.0,29.87,NW,325,0.0,35.2,94,0.00,,,0.15,VWS V14.01,2013-03-12 22:20:00,
2013-03-12 18:25:00,29.8,28.3,29.87,North,352,6.3,35.2,94,0.00,,,0.15,VWS V14.01,2013-03-12 22:25:00,
2013-03-12 18:30:00,29.7,28.2,29.87,East,83,5.2,35.2,94,0.00,,,0.15,VWS V14.01,2013-03-12 22:30:00,
2013-03-12 18:36:00,29.7,28.2,29.87,NW,308,3.2,35.2,94,0.00,,,0.15,VWS V14.01,2013-03-12 22:36:00,
2013-03-12 18:41:00,29.6,28.1,29.87,North,11,4.8,35.2,94,0.00,,,0.15,VWS V14.01,2013-03-12 22:41:00,
2013-03-12 18:47:00,29.5,28.0,29.87,East,83,0.0,35.2,94,0.00,,,0.15,VWS V14.01,2013-03-12 22:47:00,
2013-03-12 18:52:00,29.5,28.0,29.88,NW,308,0.0,35.2,94,0.00,,,0.15,VWS V14.01,2013-03-12 22:52:00,
2013-03-12 18:57:00,29.5,27.9,29.88,NW,326,13.6,15.3,94,0.00,,,0.15,VWS V14.01,2013-03-12 22:57:00,
2013-03-12 19:03:00,29.5,27.8,29.89,NW,316,5.2,22.6,93,0.00,,,0.15,VWS V14.01,2013-03-12 23:03:00,
2013-03-12 19:08:00,29.4,27.7,29.89,North,352,3.2,22.6,93,0.00,,,0.15,VWS V14.01,2013-03-12 23:08:00,
2013-03-12 19:13:00,29.4,27.7,29.88,ENE,60,3.5,22.6,93,0.00,,,0.15,VWS V14.01,2013-03-12 23:13:00,
2013-03-12 19:18:00,29.5,27.8,29.89,North,11,4.8,22.6,93,0.00,,,0.15,VWS V14.01,2013-03-12 23:18:00,
2013-03-12 19:23:00,29.4,27.7,29.89,NNW,342,0.0,22.6,93,0.00,,,0.15,VWS V14.01,2013-03-12 23:23:00,
2013-03-12 19:29:00,29.5,27.9,29.89,North,350,12.9,22.6,94,0.00,,,0.15,VWS V14.01,2013-03-12 23:29:00,
2013-03-12 19:34:00,29.4,27.8,29.90,NW,311,0.0,22.6,94,0.00,,,0.15,VWS V14.01,2013-03-12 23:34:00,
2013-03-12 19:39:00,29.4,27.8,29.90,NNW,347,11.6,22.6,94,0.00,,,0.15,VWS V14.01,2013-03-12 23:39:00,
2013-03-12 19:44:00,29.4,27.8,29.90,NNW,342,4.3,22.6,94,0.00,,,0.15,VWS V14.01,2013-03-12 23:44:00,
2013-03-12 19:49:00,29.4,27.7,29.90,NE,44,8.4,25.2,93,0.00,,,0.15,VWS V14.01,2013-03-12 23:49:00,
2013-03-12 19:55:00,29.3,27.6,29.89,ENE,76,13.6,33.0,93,0.00,,,0.15,VWS V14.01,2013-03-12 23:55:00,
2013-03-12 20:00:00,29.2,27.4,29.89,North,8,0.0,27.0,93,0.00,,,0.15,VWS V14.01,2013-03-13 00:00:00,
2013-03-12 20:05:00,29.2,27.3,29.90,ESE,105,9.7,27.0,92,0.00,,,0.15,VWS V14.01,2013-03-13 00:05:00,
2013-03-12 20:10:00,29.2,27.1,29.90,NNW,345,10.6,29.8,92,0.00,,,0.15,VWS V14.01,2013-03-13 00:10:00,
2013-03-12 20:15:00,29.3,27.2,29.90,North,6,3.0,29.8,92,0.00,,,0.15,VWS V14.01,2013-03-13 00:15:00,
2013-03-12 20:20:00,29.3,27.4,29.90,NNW,343,9.9,29.8,92,0.00,,,0.15,VWS V14.01,2013-03-13 00:20:00,
2013-03-12 20:25:00,29.3,27.5,29.90,NNW,345,0.9,29.8,93,0.00,,,0.15,VWS V14.01,2013-03-13 00:25:00,
2013-03-12 20:31:00,29.3,27.5,29.91,North,349,22.7,29.8,93,0.00,,,0.15,VWS V14.01,2013-03-13 00:31:00,
2013-03-12 20:36:00,29.3,27.6,29.91,North,354,8.6,29.8,93,0.00,,,0.15,VWS V14.01,2013-03-13 00:36:00,
2013-03-12 20:41:00,29.2,27.5,29.91,NNW,336,6.7,29.8,93,0.00,,,0.15,VWS V14.01,2013-03-13 00:41:00,
2013-03-12 20:46:00,29.2,27.5,29.91,ENE,69,0.0,29.8,93,0.00,,,0.15,VWS V14.01,2013-03-13 00:46:00,
2013-03-12 20:51:00,29.2,27.5,29.91,NNW,335,1.3,29.8,93,0.00,,,0.15,VWS V14.01,2013-03-13 00:51:00,
2013-03-12 20:57:00,29.2,27.4,29.91,NW,326,3.7,23.9,93,0.00,,,0.15,VWS V14.01,2013-03-13 00:57:00,
2013-03-12 21:02:00,29.1,27.2,29.91,North,11,0.0,23.9,93,0.00,,,0.15,VWS V14.01,2013-03-13 01:02:00,
2013-03-12 21:07:00,29.1,27.1,29.91,NNE,13,8.9,23.9,92,0.00,,,0.15,VWS V14.01,2013-03-13 01:07:00,
2013-03-12 21:12:00,29.2,27.3,29.91,NNW,345,0.0,24.2,92,0.00,,,0.15,VWS V14.01,2013-03-13 01:12:00,
2013-03-12 21:17:00,29.2,27.3,29.91,South,179,9.1,24.2,92,0.00,,,0.15,VWS V14.01,2013-03-13 01:17:00,
2013-03-12 21:23:00,29.2,27.3,29.91,NNE,17,3.2,24.2,93,0.00,,,0.15,VWS V14.01,2013-03-13 01:23:00,
2013-03-12 21:28:00,29.1,27.3,29.91,NNW,328,0.0,24.2,93,0.00,,,0.15,VWS V14.01,2013-03-13 01:28:00,
2013-03-12 21:33:00,29.1,27.3,29.91,NNW,330,4.3,29.3,93,0.00,,,0.15,VWS V14.01,2013-03-13 01:33:00,
2013-03-12 21:38:00,29.2,27.5,29.91,ENE,63,5.4,29.3,93,0.00,,,0.15,VWS V14.01,2013-03-13 01:38:00,
2013-03-12 21:44:00,29.0,27.3,29.91,NW,314,12.5,29.3,93,0.00,,,0.15,VWS V14.01,2013-03-13 01:44:00,
2013-03-12 21:49:00,28.9,27.2,29.91,NNE,22,5.0,30.6,93,0.00,,,0.15,VWS V14.01,2013-03-13 01:49:00,
2013-03-12 21:54:00,28.9,27.2,29.91,ENE,72,27.2,30.6,93,0.00,,,0.15,VWS V14.01,2013-03-13 01:54:00,
2013-03-12 21:59:00,28.9,27.1,29.92,East,83,3.5,25.4,93,0.00,,,0.15,VWS V14.01,2013-03-13 01:59:00,
2013-03-12 22:04:00,28.7,26.8,29.92,NE,41,16.4,26.3,92,0.00,,,0.15,VWS V14.01,2013-03-13 02:04:00,
2013-03-12 22:09:00,28.8,27.0,29.92,North,3,13.4,26.3,93,0.00,,,0.15,VWS V14.01,2013-03-13 02:09:00,
2013-03-12 22:15:00,28.9,27.0,29.92,NNW,333,8.9,28.9,92,0.00,,,0.15,VWS V14.01,2013-03-13 02:15:00,
2013-03-12 22:20:00,28.7,26.6,29.92,NNW,346,13.4,28.9,92,0.00,,,0.15,VWS V14.01,2013-03-13 02:20:00,
2013-03-12 22:25:00,28.8,26.6,29.92,North,7,0.0,28.9,91,0.00,,,0.15,VWS V14.01,2013-03-13 02:25:00,
2013-03-12 22:30:00,28.8,26.6,29.92,NE,42,9.7,34.5,91,0.00,,,0.15,VWS V14.01,2013-03-13 02:30:00,
2013-03-12 22:35:00,28.8,26.4,29.92,SE,143,19.8,34.5,91,0.00,,,0.15,VWS V14.01,2013-03-13 02:35:00,
2013-03-12 22:40:00,28.7,26.3,29.92,North,3,17.5,34.5,91,0.00,,,0.15,VWS V14.01,2013-03-13 02:40:00,
2013-03-12 22:46:00,28.8,26.5,29.92,East,96,10.4,34.5,91,0.00,,,0.15,VWS V14.01,2013-03-13 02:46:00,
2013-03-12 22:52:00,28.9,26.8,29.92,NNW,333,21.1,34.5,92,0.00,,,0.15,VWS V14.01,2013-03-13 02:52:00,
2013-03-12 22:57:00,28.7,26.4,29.92,NE,52,10.4,15.5,91,0.00,,,0.15,VWS V14.01,2013-03-13 02:57:00,
2013-03-12 23:02:00,28.6,26.3,29.92,NNW,328,7.1,26.7,91,0.00,,,0.15,VWS V14.01,2013-03-13 03:02:00,
2013-03-12 23:07:00,28.6,26.4,29.92,NNW,347,5.6,26.7,91,0.00,,,0.15,VWS V14.01,2013-03-13 03:07:00,
2013-03-12 23:12:00,28.7,26.4,29.92,North,359,10.6,26.7,91,0.00,,,0.15,VWS V14.01,2013-03-13 03:12:00,
2013-03-12 23:17:00,28.7,26.5,29.92,NW,315,6.7,27.0,91,0.00,,,0.15,VWS V14.01,2013-03-13 03:17:00,
2013-03-12 23:22:00,28.4,26.1,29.92,North,10,16.4,33.7,91,0.00,,,0.15,VWS V14.01,2013-03-13 03:22:00,
2013-03-12 23:28:00,28.4,26.2,29.92,NNE,18,9.7,33.7,91,0.00,,,0.15,VWS V14.01,2013-03-13 03:28:00,
2013-03-12 23:33:00,28.4,26.3,29.92,NW,326,9.7,33.7,92,0.00,,,0.15,VWS V14.01,2013-03-13 03:33:00,
2013-03-12 23:38:00,28.4,26.2,29.92,ENE,62,11.4,33.7,91,0.00,,,0.15,VWS V14.01,2013-03-13 03:38:00,
2013-03-12 23:43:00,28.4,26.1,29.92,NNE,32,7.5,33.7,91,0.00,,,0.15,VWS V14.01,2013-03-13 03:43:00,
2013-03-12 23:48:00,28.3,25.5,29.92,NNW,336,7.1,33.7,89,0.00,,,0.15,VWS V14.01,2013-03-13 03:48:00,
2013-03-12 23:53:00,28.3,25.5,29.92,NNW,333,5.2,33.7,89,0.00,,,0.15,VWS V14.01,2013-03-13 03:53:00,
2013-03-12 23:59:00,28.3,25.4,29.92,NE,37,6.9,23.1,89,0.00,,,0.15,VWS V14.01,2013-03-13 03:59:00,